createdAt,value
2023-02-25T00:02:41.865Z,20.40
2023-02-25T00:06:39.877Z,20.20
2023-02-25T00:10:37.846Z,19.40
2023-02-25T00:14:38.281Z,19.10
2023-02-25T00:18:37.713Z,20.90
2023-02-25T00:22:35.778Z,20.60
2023-02-25T00:26:34.780Z,20.40
2023-02-25T00:30:32.701Z,18.60
2023-02-25T00:34:30.743Z,19.50
2023-02-25T00:38:29.751Z,18.90
2023-02-25T00:42:33.702Z,18.50
2023-02-25T00:46:32.872Z,19.70
2023-02-25T00:50:30.693Z,17.10
2023-02-25T00:54:30.747Z,16.30
2023-02-25T00:58:28.713Z,15.70
2023-02-25T01:02:27.749Z,13.70
2023-02-25T01:06:25.684Z,10.90
2023-02-25T01:10:24.667Z,8.00
2023-02-25T01:14:26.675Z,7.20
2023-02-25T01:18:26.727Z,7.10
2023-02-25T01:22:24.650Z,6.60
2023-02-25T01:26:24.946Z,6.30
2023-02-25T01:30:22.654Z,5.60
2023-02-25T01:34:22.670Z,5.20
2023-02-25T01:38:20.629Z,5.40
2023-02-25T01:42:27.650Z,5.50
2023-02-25T01:46:26.006Z,5.40
2023-02-25T01:50:23.839Z,5.70
2023-02-25T01:54:23.642Z,5.50
2023-02-25T01:58:22.652Z,5.10
2023-02-25T02:02:23.699Z,5.90
2023-02-25T02:06:35.616Z,5.80
2023-02-25T02:10:33.588Z,5.70
2023-02-25T02:14:35.655Z,5.40
2023-02-25T02:18:35.604Z,5.60
2023-02-25T02:22:48.638Z,5.90
2023-02-25T02:27:04.582Z,5.60
2023-02-25T02:31:33.660Z,6.20
2023-02-25T02:35:41.529Z,5.90
2023-02-25T02:39:43.615Z,6.70
2023-02-25T02:44:15.587Z,5.90
2023-02-25T02:48:17.665Z,6.50
2023-02-25T02:52:26.510Z,6.10
2023-02-25T02:56:28.609Z,6.20
2023-02-25T03:00:33.554Z,7.40
2023-02-25T03:04:35.624Z,6.90
2023-02-25T03:08:43.516Z,7.60
2023-02-25T03:12:41.510Z,8.00
2023-02-25T03:16:45.579Z,7.80
2023-02-25T03:20:50.532Z,8.60
2023-02-25T03:25:08.511Z,8.50
2023-02-25T03:29:06.532Z,9.00
2023-02-25T03:33:10.497Z,9.10
2023-02-25T03:37:13.548Z,9.10
2023-02-25T03:41:17.566Z,8.10
2023-02-25T03:45:19.522Z,8.70
2023-02-25T03:49:18.704Z,8.30
2023-02-25T03:53:16.541Z,10.10
2023-02-25T03:57:23.509Z,9.00
2023-02-25T04:01:25.536Z,9.80
2023-02-25T04:05:23.511Z,10.50
2023-02-25T04:09:21.526Z,9.60
2023-02-25T04:13:19.502Z,9.80
2023-02-25T04:17:18.501Z,9.20
2023-02-25T04:21:16.483Z,11.50
2023-02-25T04:25:14.458Z,13.60
2023-02-25T04:29:12.425Z,13.10
2023-02-25T04:33:10.523Z,12.80
2023-02-25T04:37:08.409Z,16.30
2023-02-25T04:41:06.427Z,17.30
2023-02-25T04:45:04.518Z,17.00
2023-02-25T04:49:02.413Z,15.70
2023-02-25T04:53:00.388Z,17.50
2023-02-25T04:56:58.411Z,18.90
2023-02-25T05:00:56.371Z,18.10
2023-02-25T05:04:55.436Z,18.30
2023-02-25T05:08:53.403Z,15.60
2023-02-25T05:12:51.435Z,14.30
2023-02-25T05:16:49.501Z,14.60
2023-02-25T05:20:47.509Z,14.80
2023-02-25T05:24:45.332Z,15.00
2023-02-25T05:28:43.382Z,16.10
2023-02-25T05:32:41.558Z,13.60
2023-02-25T05:36:39.433Z,14.00
2023-02-25T05:40:39.339Z,12.40
2023-02-25T05:44:37.383Z,10.90
2023-02-25T05:48:35.354Z,11.10
2023-02-25T05:52:33.387Z,9.90
2023-02-25T05:56:35.344Z,10.70
2023-02-25T06:00:33.343Z,11.00
2023-02-25T06:04:31.347Z,10.50
2023-02-25T06:08:29.355Z,10.30
2023-02-25T06:12:27.377Z,10.50
2023-02-25T06:16:25.675Z,10.80
2023-02-25T06:20:24.310Z,10.90
2023-02-25T06:24:23.315Z,10.60
2023-02-25T06:28:21.264Z,10.30
2023-02-25T06:32:19.418Z,11.30
2023-02-25T06:36:17.247Z,13.50
2023-02-25T06:40:15.338Z,14.00
2023-02-25T06:44:15.714Z,13.20
2023-02-25T06:48:13.276Z,12.70
2023-02-25T06:52:11.354Z,12.70
2023-02-25T06:56:09.290Z,11.20
2023-02-25T07:00:07.303Z,15.10
2023-02-25T07:04:05.368Z,13.70
2023-02-25T07:08:03.268Z,11.50
2023-02-25T07:12:01.246Z,11.80
2023-02-25T07:15:59.237Z,10.90
2023-02-25T07:19:58.322Z,12.10
2023-02-25T07:23:57.204Z,11.50
2023-02-25T07:27:57.189Z,10.70
2023-02-25T07:31:55.490Z,10.80
2023-02-25T07:35:53.311Z,11.10
2023-02-25T07:39:53.247Z,9.30
2023-02-25T07:43:51.326Z,8.90
2023-02-25T07:47:49.219Z,7.90
2023-02-25T07:51:48.302Z,6.10
2023-02-25T07:55:46.278Z,6.50
2023-02-25T07:59:44.177Z,7.90
2023-02-25T08:03:42.166Z,7.90
2023-02-25T08:07:40.232Z,6.90
2023-02-25T08:11:39.110Z,8.10
2023-02-25T08:15:39.217Z,9.20
2023-02-25T08:19:37.129Z,8.00
2023-02-25T08:23:35.309Z,8.10
2023-02-25T08:27:33.115Z,7.50
2023-02-25T08:31:31.282Z,5.40
2023-02-25T08:35:29.091Z,4.00
2023-02-25T08:39:27.082Z,4.10
2023-02-25T08:43:26.134Z,4.40
2023-02-25T08:47:24.115Z,5.80
2023-02-25T08:51:24.468Z,5.30
2023-02-25T08:55:22.113Z,6.10
2023-02-25T08:59:21.063Z,6.00
2023-02-25T09:03:19.052Z,6.70
2023-02-25T09:07:17.056Z,6.80
2023-02-25T09:11:15.089Z,6.00
2023-02-25T09:15:13.071Z,7.70
2023-02-25T09:19:11.112Z,6.10
2023-02-25T09:23:09.186Z,8.00
2023-02-25T09:27:07.234Z,6.90
2023-02-25T09:31:06.139Z,7.00
2023-02-25T09:35:05.165Z,7.00
2023-02-25T09:39:05.202Z,7.60
2023-02-25T09:43:24.167Z,6.00
2023-02-25T09:47:32.036Z,6.50
2023-02-25T09:51:38.049Z,6.90
2023-02-25T09:55:49.129Z,6.70
2023-02-25T09:59:48.105Z,6.20
2023-02-25T10:04:21.062Z,7.00
2023-02-25T10:08:29.081Z,7.80
2023-02-25T10:12:48.996Z,7.50
2023-02-25T10:16:59.015Z,8.10
2023-02-25T10:21:23.410Z,7.10
2023-02-25T10:25:29.093Z,5.50
2023-02-25T10:29:35.980Z,5.10
2023-02-25T10:37:48.141Z,4.30
2023-02-25T10:41:46.060Z,3.80
2023-02-25T10:45:46.089Z,4.20
2023-02-25T10:49:47.959Z,4.90
2023-02-25T10:53:46.933Z,5.30
2023-02-25T10:57:19.867Z,5.40
2023-02-25T11:00:44.404Z,4.60
2023-02-25T11:04:14.720Z,4.70
2023-02-25T11:07:38.873Z,4.90
2023-02-25T11:11:07.270Z,6.10
2023-02-25T11:14:34.003Z,5.50
2023-02-25T11:18:13.030Z,5.90
2023-02-25T11:21:39.460Z,5.80
2023-02-25T11:25:08.412Z,4.60
2023-02-25T11:28:36.998Z,5.00
2023-02-25T11:32:14.790Z,5.40
2023-02-25T11:35:40.233Z,4.80
2023-02-25T11:39:18.569Z,4.80
2023-02-25T11:42:42.474Z,4.70
2023-02-25T11:46:22.492Z,5.30
2023-02-25T11:49:58.768Z,5.50
2023-02-25T11:53:35.912Z,4.60
2023-02-25T11:57:10.756Z,5.20
2023-02-25T12:00:52.128Z,4.90
2023-02-25T12:04:31.160Z,5.50
2023-02-25T12:08:40.314Z,3.70
2023-02-25T12:12:52.838Z,4.30
2023-02-25T12:17:12.894Z,4.80
2023-02-25T12:20:45.774Z,3.60
2023-02-25T12:24:37.053Z,4.30
2023-02-25T12:28:31.236Z,5.00
2023-02-25T12:32:41.792Z,3.60
2023-02-25T12:36:54.809Z,3.50
2023-02-25T12:41:00.997Z,3.20
2023-02-25T12:45:16.998Z,4.10
2023-02-25T12:49:29.796Z,4.60
2023-02-25T12:53:39.733Z,2.70
2023-02-25T12:57:58.808Z,2.70
2023-02-25T13:02:09.777Z,2.80
2023-02-25T13:06:37.762Z,3.70
2023-02-25T13:10:56.758Z,3.90
2023-02-25T13:15:09.744Z,3.80
2023-02-25T13:19:45.829Z,4.50
2023-02-25T13:24:08.741Z,3.60
2023-02-25T13:28:28.747Z,3.50
2023-02-25T13:33:08.822Z,4.10
2023-02-25T13:37:17.853Z,4.40
2023-02-25T13:41:39.842Z,4.00
2023-02-25T13:45:56.874Z,3.90
2023-02-25T13:50:25.839Z,3.80
2023-02-25T13:54:38.758Z,4.00
2023-02-25T13:59:06.737Z,4.30
2023-02-25T14:03:22.679Z,6.10
2023-02-25T14:07:41.727Z,4.70
2023-02-25T14:12:11.595Z,3.90
2023-02-25T14:16:19.712Z,3.40
2023-02-25T14:25:09.652Z,3.30
2023-02-25T14:29:42.687Z,3.90
2023-02-25T14:33:48.716Z,4.30
2023-02-25T14:38:16.628Z,3.00
2023-02-25T14:42:22.787Z,2.30
2023-02-25T14:46:46.641Z,2.20
2023-02-25T14:50:56.601Z,3.20
2023-02-25T14:55:21.655Z,3.10
2023-02-25T15:00:09.660Z,3.20
2023-02-25T15:04:46.620Z,4.30
2023-02-25T15:09:02.717Z,4.90
2023-02-25T15:13:13.607Z,5.80
2023-02-25T15:17:45.659Z,5.50
2023-02-25T15:21:46.655Z,4.10
2023-02-25T15:25:52.603Z,5.70
2023-02-25T15:29:50.578Z,6.50
2023-02-25T15:34:06.682Z,6.30
2023-02-25T15:38:04.605Z,6.80
2023-02-25T15:42:16.560Z,6.70
2023-02-25T15:46:23.599Z,5.60
2023-02-25T15:50:22.640Z,5.80
2023-02-25T15:54:20.586Z,7.20
2023-02-25T15:58:40.131Z,8.00
2023-02-25T16:02:45.565Z,7.20
2023-02-25T16:06:56.629Z,7.90
2023-02-25T16:11:02.505Z,7.70
2023-02-25T16:15:00.583Z,6.90
2023-02-25T16:19:02.508Z,7.40
2023-02-25T16:23:02.592Z,8.30
2023-02-25T16:27:09.602Z,8.70
2023-02-25T16:31:30.544Z,8.50
2023-02-25T16:35:55.344Z,8.50
2023-02-25T16:39:57.516Z,8.30
2023-02-25T16:43:57.512Z,10.00
2023-02-25T16:47:58.471Z,12.70
2023-02-25T16:51:59.481Z,13.40
2023-02-25T16:55:57.590Z,12.00
2023-02-25T16:59:57.533Z,11.40
2023-02-25T17:04:00.495Z,11.20
2023-02-25T17:07:58.471Z,12.90
2023-02-25T17:11:56.461Z,12.80
2023-02-25T17:15:55.460Z,13.60
2023-02-25T17:19:53.533Z,9.70
2023-02-25T17:23:55.509Z,10.90
2023-02-25T17:27:55.547Z,10.70
2023-02-25T17:32:05.515Z,11.60
2023-02-25T17:36:06.447Z,12.10
2023-02-25T17:40:04.404Z,15.00
2023-02-25T17:44:02.450Z,13.80
2023-02-25T17:48:02.434Z,12.20
2023-02-25T17:52:01.440Z,11.40
2023-02-25T17:55:59.414Z,12.50
2023-02-25T18:00:04.518Z,10.50
2023-02-25T18:04:05.818Z,10.70
2023-02-25T18:08:12.604Z,9.30
2023-02-25T18:16:56.390Z,12.70
2023-02-25T18:20:56.372Z,10.80
2023-02-25T18:24:54.384Z,11.50
2023-02-25T18:28:52.309Z,12.20
2023-02-25T18:32:50.671Z,14.60
2023-02-25T18:36:50.363Z,12.40
2023-02-25T18:40:51.380Z,14.50
2023-02-25T18:44:49.318Z,13.60
2023-02-25T18:48:47.315Z,13.20
2023-02-25T18:52:45.311Z,12.40
2023-02-25T18:56:43.304Z,12.40
2023-02-25T19:00:42.275Z,10.20
2023-02-25T19:04:40.414Z,11.80
2023-02-25T19:08:38.268Z,10.50
2023-02-25T19:12:38.286Z,10.70
2023-02-25T19:16:37.320Z,11.80
2023-02-25T19:20:35.409Z,11.20
2023-02-25T19:24:33.530Z,11.50
2023-02-25T19:28:31.308Z,10.40
2023-02-25T19:32:29.363Z,11.70
2023-02-25T19:36:27.269Z,13.30
2023-02-25T19:40:28.258Z,13.40
2023-02-25T19:44:27.264Z,11.40
2023-02-25T19:48:25.221Z,12.70
2023-02-25T19:52:23.218Z,14.10
2023-02-25T19:56:21.260Z,13.00
2023-02-25T20:00:20.227Z,13.80
2023-02-25T20:04:18.385Z,12.20
2023-02-25T20:08:16.271Z,13.40
2023-02-25T20:12:14.190Z,12.30
2023-02-25T20:16:16.237Z,14.40
2023-02-25T20:20:15.321Z,13.60
2023-02-25T20:24:13.519Z,13.40
2023-02-25T20:28:11.392Z,11.30
2023-02-25T20:32:11.314Z,13.90
2023-02-25T20:36:09.190Z,15.80
2023-02-25T20:40:15.251Z,13.30
2023-02-25T20:44:13.246Z,11.70
2023-02-25T20:48:11.214Z,13.00
2023-02-25T20:52:09.109Z,12.00
2023-02-25T20:56:09.237Z,12.00
2023-02-25T21:00:09.191Z,11.60
2023-02-25T21:04:07.191Z,12.20
2023-02-25T21:08:05.122Z,11.80
2023-02-25T21:12:03.271Z,10.90
2023-02-25T21:16:01.153Z,11.50
2023-02-25T21:19:59.197Z,11.80
2023-02-25T21:23:59.081Z,11.30
2023-02-25T21:28:03.314Z,12.20
2023-02-25T21:32:02.086Z,11.60
2023-02-25T21:36:06.160Z,12.10
2023-02-25T21:40:04.080Z,11.60
2023-02-25T21:44:02.114Z,10.80
2023-02-25T21:48:00.358Z,12.00
2023-02-25T21:51:58.114Z,11.50
2023-02-25T21:55:56.082Z,10.60
2023-02-25T21:59:54.108Z,11.70
2023-02-25T22:03:52.162Z,10.50
2023-02-25T22:07:50.137Z,10.60
2023-02-25T22:11:51.028Z,12.10
2023-02-25T22:15:50.100Z,10.50
2023-02-25T22:19:48.087Z,10.80
2023-02-25T22:23:46.077Z,10.70
2023-02-25T22:27:44.002Z,11.40
2023-02-25T22:31:42.155Z,11.50
2023-02-25T22:35:40.027Z,11.00
2023-02-25T22:39:38.006Z,10.10
2023-02-25T22:43:35.988Z,11.50
2023-02-25T22:47:34.002Z,12.30
2023-02-25T22:51:38.967Z,12.80
2023-02-25T22:55:37.075Z,11.60
2023-02-25T22:59:35.079Z,11.40
2023-02-25T23:03:33.013Z,11.70
2023-02-25T23:07:30.969Z,12.10
2023-02-25T23:11:30.982Z,13.20
2023-02-25T23:15:28.954Z,13.10
2023-02-25T23:19:30.068Z,11.90
2023-02-25T23:23:27.942Z,12.00
2023-02-25T23:27:25.990Z,11.90
2023-02-25T23:31:34.996Z,12.70
2023-02-25T23:35:33.060Z,11.80
2023-02-25T23:39:31.001Z,10.60
2023-02-25T23:43:28.970Z,10.40
2023-02-25T23:47:26.901Z,10.70
2023-02-25T23:51:24.912Z,11.10
2023-02-25T23:55:22.904Z,11.40
2023-02-25T23:59:21.918Z,10.60
